MUC1158 EDFE-EDFE
Flight info
| Callsign | MUC1158 |
|---|---|
| Flight time | 0h 8m |
| Altitude | 1500 |
| Route | VFR |
| Aircraft | C172/L-VGD/A |
Departure
| Time | 2026-04-27 19:11 |
|---|---|
| Airport | Frankfurt-Egelsbach Airport (EDFE) |
Arrival
| Time | 2026-04-27 19:19 |
|---|---|
| Airport | Frankfurt-Egelsbach Airport (EDFE) |
| Time | Latitude | Longitude | Altitude | Speed | Heading |
|---|---|---|---|---|---|
| 2026-04-27 19:04 | 49.96202 | 8.64287 | 384 ft | 0 kts | 86° |
| 2026-04-27 19:06 | 49.96202 | 8.64300 | 384 ft | 4 kts | 94° |
| 2026-04-27 19:07 | 49.96173 | 8.64292 | 385 ft | 9 kts | 262° |
| 2026-04-27 19:07 | 49.96167 | 8.64166 | 385 ft | 14 kts | 266° |
| 2026-04-27 19:07 | 49.96158 | 8.63977 | 382 ft | 22 kts | 265° |
| 2026-04-27 19:07 | 49.96145 | 8.63703 | 376 ft | 28 kts | 265° |
| 2026-04-27 19:08 | 49.96129 | 8.63371 | 370 ft | 29 kts | 266° |
| 2026-04-27 19:08 | 49.96094 | 8.63218 | 370 ft | 4 kts | 181° |
| 2026-04-27 19:08 | 49.96092 | 8.63218 | 370 ft | 0 kts | 162° |
| 2026-04-27 19:09 | 49.96084 | 8.63213 | 370 ft | 6 kts | 221° |
| 2026-04-27 19:10 | 49.96041 | 8.63239 | 370 ft | 20 kts | 85° |
| 2026-04-27 19:10 | 49.96064 | 8.63731 | 376 ft | 68 kts | 84° |
| 2026-04-27 19:10 | 49.96080 | 8.64541 | 540 ft | 78 kts | 85° |
| 2026-04-27 19:10 | 49.96096 | 8.65098 | 688 ft | 78 kts | 82° |
| 2026-04-27 19:11 | 49.96174 | 8.66247 | 984 ft | 81 kts | 91° |
| 2026-04-27 19:11 | 49.95737 | 8.66796 | 1024 ft | 99 kts | 174° |
| 2026-04-27 19:11 | 49.94993 | 8.66775 | 980 ft | 112 kts | 181° |
| 2026-04-27 19:11 | 49.94324 | 8.66324 | 1088 ft | 105 kts | 229° |
| 2026-04-27 19:12 | 49.94027 | 8.65313 | 1143 ft | 105 kts | 258° |
| 2026-04-27 19:12 | 49.93818 | 8.64223 | 1160 ft | 110 kts | 256° |
| 2026-04-27 19:12 | 49.93591 | 8.63122 | 1102 ft | 103 kts | 256° |
| 2026-04-27 19:12 | 49.93671 | 8.62114 | 1031 ft | 94 kts | 314° |
| 2026-04-27 19:13 | 49.94249 | 8.61755 | 912 ft | 92 kts | 355° |
| 2026-04-27 19:13 | 49.94890 | 8.61623 | 803 ft | 93 kts | 356° |
| 2026-04-27 19:13 | 49.95487 | 8.61750 | 757 ft | 85 kts | 26° |
| 2026-04-27 19:13 | 49.95922 | 8.62316 | 591 ft | 81 kts | 60° |
| 2026-04-27 19:14 | 49.96033 | 8.63149 | 396 ft | 77 kts | 82° |
| 2026-04-27 19:14 | 49.96073 | 8.63887 | 381 ft | 73 kts | 85° |
| 2026-04-27 19:14 | 49.96104 | 8.64753 | 550 ft | 83 kts | 83° |
| 2026-04-27 19:14 | 49.96138 | 8.65661 | 762 ft | 87 kts | 83° |
| 2026-04-27 19:15 | 49.96179 | 8.66612 | 979 ft | 89 kts | 83° |
| 2026-04-27 19:15 | 49.96076 | 8.67523 | 1154 ft | 93 kts | 128° |
| 2026-04-27 19:15 | 49.95450 | 8.67920 | 1164 ft | 104 kts | 174° |
| 2026-04-27 19:15 | 49.94697 | 8.67888 | 1172 ft | 111 kts | 181° |
| 2026-04-27 19:16 | 49.94023 | 8.67464 | 1300 ft | 108 kts | 228° |
| 2026-04-27 19:16 | 49.93807 | 8.66776 | 1331 ft | 110 kts | 262° |
| 2026-04-27 19:16 | 49.93582 | 8.65152 | 1318 ft | 120 kts | 261° |
| 2026-04-27 19:16 | 49.93429 | 8.63912 | 1274 ft | 115 kts | 264° |
| 2026-04-27 19:17 | 49.93309 | 8.62698 | 1224 ft | 114 kts | 265° |
| 2026-04-27 19:17 | 49.93432 | 8.61595 | 1197 ft | 100 kts | 319° |
| 2026-04-27 19:17 | 49.94029 | 8.61247 | 986 ft | 90 kts | 354° |
| 2026-04-27 19:17 | 49.94633 | 8.61133 | 813 ft | 85 kts | 359° |
| 2026-04-27 19:18 | 49.95186 | 8.61092 | 690 ft | 76 kts | 4° |
| 2026-04-27 19:18 | 49.95680 | 8.61274 | 607 ft | 71 kts | 31° |
| 2026-04-27 19:18 | 49.95957 | 8.61874 | 508 ft | 71 kts | 73° |
| 2026-04-27 19:18 | 49.96015 | 8.62656 | 434 ft | 75 kts | 82° |
| 2026-04-27 19:19 | 49.96049 | 8.63421 | 372 ft | 62 kts | 82° |
| 2026-04-27 19:19 | 49.96073 | 8.63900 | 381 ft | 30 kts | 82° |
| 2026-04-27 19:19 | 49.96085 | 8.64193 | 386 ft | 27 kts | 85° |
| 2026-04-27 19:19 | 49.96099 | 8.64478 | 388 ft | 20 kts | 70° |
| 2026-04-27 19:20 | 49.96181 | 8.64521 | 388 ft | 11 kts | 280° |
| 2026-04-27 19:20 | 49.96176 | 8.64365 | 385 ft | 18 kts | 264° |
| 2026-04-27 19:20 | 49.96240 | 8.64289 | 383 ft | 13 kts | 285° |
| 2026-04-27 19:20 | 49.96207 | 8.64239 | 384 ft | 7 kts | 112° |
| 2026-04-27 19:21 | 49.96209 | 8.64294 | 384 ft | 0 kts | 86° |